Amherst, Wisconsin
Current Conditions -  °F | °C
As of 11:35 AM on Monday 22 Dec 2014 (Local Time) from KSTE Reporting Station
Haze Haze  
Wind Chill: 28°   Ceiling: 900
Heat Index: 33°   Visibility: 4mi
Dew Point: 31°   Wind: 6mph
Humidity: 93%   Direction: 120°ESE
Pressure: 29.79"   Gusts: NA
Location:  44.45°N, 89.28°W
Report Text: KSTE 221735Z AUTO 12005KT 4SM BR OVC009 01/00 A2979 RMK AO2 T00061004
Loading
Personal Weather Stations






























Interactive Weather Map New forecast layout! Learn more

10-Day Weather Forecast

Advertisements
Track Severe Weather on mobile